sensor_id;sensor_type;location;lat;lon;timestamp;P1;durP1;ratioP1;P2;durP2;ratioP2
78561;SDS011;68963;52.138;5.446;2023-04-25T00:00:51;11.95;;;2.95;;
78561;SDS011;68963;52.138;5.446;2023-04-25T00:03:18;12.30;;;3.08;;
78561;SDS011;68963;52.138;5.446;2023-04-25T00:05:45;12.10;;;3.30;;
78561;SDS011;68963;52.138;5.446;2023-04-25T00:08:12;12.07;;;3.17;;
78561;SDS011;68963;52.138;5.446;2023-04-25T00:10:39;14.80;;;3.13;;
78561;SDS011;68963;52.138;5.446;2023-04-25T00:13:05;12.02;;;2.90;;
78561;SDS011;68963;52.138;5.446;2023-04-25T00:15:32;14.82;;;3.40;;
78561;SDS011;68963;52.138;5.446;2023-04-25T00:17:58;11.65;;;3.22;;
78561;SDS011;68963;52.138;5.446;2023-04-25T00:20:25;13.90;;;2.65;;
78561;SDS011;68963;52.138;5.446;2023-04-25T00:22:51;12.00;;;3.17;;
78561;SDS011;68963;52.138;5.446;2023-04-25T00:25:19;15.25;;;3.38;;
78561;SDS011;68963;52.138;5.446;2023-04-25T00:27:46;16.38;;;3.15;;
78561;SDS011;68963;52.138;5.446;2023-04-25T00:30:12;14.30;;;3.03;;
78561;SDS011;68963;52.138;5.446;2023-04-25T00:32:40;13.95;;;3.20;;
78561;SDS011;68963;52.138;5.446;2023-04-25T00:35:06;16.25;;;2.92;;
78561;SDS011;68963;52.138;5.446;2023-04-25T00:37:33;12.52;;;3.15;;
78561;SDS011;68963;52.138;5.446;2023-04-25T00:40:00;14.88;;;3.03;;
78561;SDS011;68963;52.138;5.446;2023-04-25T00:42:26;12.43;;;3.05;;
78561;SDS011;68963;52.138;5.446;2023-04-25T00:44:53;17.55;;;3.60;;
78561;SDS011;68963;52.138;5.446;2023-04-25T00:47:19;17.40;;;3.05;;
78561;SDS011;68963;52.138;5.446;2023-04-25T00:49:46;12.68;;;3.20;;
78561;SDS011;68963;52.138;5.446;2023-04-25T00:52:13;12.68;;;2.88;;
78561;SDS011;68963;52.138;5.446;2023-04-25T00:54:39;14.85;;;2.83;;
78561;SDS011;68963;52.138;5.446;2023-04-25T00:57:06;10.88;;;3.00;;
78561;SDS011;68963;52.138;5.446;2023-04-25T00:59:33;15.30;;;3.20;;
78561;SDS011;68963;52.138;5.446;2023-04-25T01:01:59;15.48;;;2.67;;
78561;SDS011;68963;52.138;5.446;2023-04-25T01:04:27;9.57;;;2.65;;
78561;SDS011;68963;52.138;5.446;2023-04-25T01:06:54;12.95;;;3.03;;
78561;SDS011;68963;52.138;5.446;2023-04-25T01:09:22;11.80;;;3.42;;
78561;SDS011;68963;52.138;5.446;2023-04-25T01:11:48;15.55;;;3.35;;
78561;SDS011;68963;52.138;5.446;2023-04-25T01:14:16;12.38;;;3.13;;
78561;SDS011;68963;52.138;5.446;2023-04-25T01:16:42;12.93;;;2.95;;
78561;SDS011;68963;52.138;5.446;2023-04-25T01:19:09;15.10;;;3.38;;
78561;SDS011;68963;52.138;5.446;2023-04-25T01:21:39;12.50;;;3.60;;
78561;SDS011;68963;52.138;5.446;2023-04-25T01:24:06;15.38;;;2.92;;
78561;SDS011;68963;52.138;5.446;2023-04-25T01:26:33;11.15;;;2.58;;
78561;SDS011;68963;52.138;5.446;2023-04-25T01:29:01;13.70;;;3.28;;
78561;SDS011;68963;52.138;5.446;2023-04-25T01:31:27;16.13;;;2.97;;
78561;SDS011;68963;52.138;5.446;2023-04-25T01:33:55;12.48;;;3.10;;
78561;SDS011;68963;52.138;5.446;2023-04-25T01:36:21;9.75;;;3.30;;
78561;SDS011;68963;52.138;5.446;2023-04-25T01:38:48;9.52;;;2.83;;
78561;SDS011;68963;52.138;5.446;2023-04-25T01:41:15;12.27;;;2.97;;
78561;SDS011;68963;52.138;5.446;2023-04-25T01:43:43;13.30;;;3.30;;
78561;SDS011;68963;52.138;5.446;2023-04-25T01:46:11;13.70;;;2.97;;
78561;SDS011;68963;52.138;5.446;2023-04-25T01:48:38;12.27;;;3.33;;
78561;SDS011;68963;52.138;5.446;2023-04-25T01:51:04;12.52;;;3.10;;
78561;SDS011;68963;52.138;5.446;2023-04-25T01:53:31;10.43;;;2.85;;
78561;SDS011;68963;52.138;5.446;2023-04-25T01:55:58;10.88;;;2.90;;
78561;SDS011;68963;52.138;5.446;2023-04-25T01:58:24;16.27;;;2.95;;
78561;SDS011;68963;52.138;5.446;2023-04-25T02:00:51;13.07;;;3.20;;
78561;SDS011;68963;52.138;5.446;2023-04-25T02:03:17;9.05;;;2.80;;
78561;SDS011;68963;52.138;5.446;2023-04-25T02:05:44;9.43;;;2.70;;
78561;SDS011;68963;52.138;5.446;2023-04-25T02:08:10;11.05;;;2.88;;
78561;SDS011;68963;52.138;5.446;2023-04-25T02:10:37;13.13;;;2.60;;
78561;SDS011;68963;52.138;5.446;2023-04-25T02:13:04;12.43;;;2.97;;
78561;SDS011;68963;52.138;5.446;2023-04-25T02:15:31;10.75;;;2.67;;
78561;SDS011;68963;52.138;5.446;2023-04-25T02:17:58;9.45;;;2.65;;
78561;SDS011;68963;52.138;5.446;2023-04-25T02:20:27;10.07;;;2.80;;
78561;SDS011;68963;52.138;5.446;2023-04-25T02:22:54;15.05;;;2.85;;
78561;SDS011;68963;52.138;5.446;2023-04-25T02:25:21;13.55;;;2.85;;
78561;SDS011;68963;52.138;5.446;2023-04-25T02:27:48;12.25;;;2.63;;
78561;SDS011;68963;52.138;5.446;2023-04-25T02:30:15;12.38;;;2.78;;
78561;SDS011;68963;52.138;5.446;2023-04-25T02:32:41;10.00;;;2.45;;
78561;SDS011;68963;52.138;5.446;2023-04-25T02:35:08;12.02;;;2.65;;
78561;SDS011;68963;52.138;5.446;2023-04-25T02:37:35;11.50;;;3.10;;
78561;SDS011;68963;52.138;5.446;2023-04-25T02:40:03;11.75;;;2.33;;
78561;SDS011;68963;52.138;5.446;2023-04-25T02:42:30;8.50;;;2.65;;
78561;SDS011;68963;52.138;5.446;2023-04-25T02:44:57;15.02;;;2.80;;
78561;SDS011;68963;52.138;5.446;2023-04-25T02:47:24;19.38;;;2.70;;
78561;SDS011;68963;52.138;5.446;2023-04-25T02:49:50;11.48;;;3.13;;
78561;SDS011;68963;52.138;5.446;2023-04-25T02:52:17;11.80;;;2.67;;
78561;SDS011;68963;52.138;5.446;2023-04-25T02:54:43;11.68;;;2.40;;
78561;SDS011;68963;52.138;5.446;2023-04-25T02:57:10;14.27;;;3.20;;
78561;SDS011;68963;52.138;5.446;2023-04-25T02:59:36;12.25;;;2.78;;
78561;SDS011;68963;52.138;5.446;2023-04-25T03:02:03;11.27;;;2.60;;
78561;SDS011;68963;52.138;5.446;2023-04-25T03:04:29;12.55;;;2.83;;
78561;SDS011;68963;52.138;5.446;2023-04-25T03:06:56;10.93;;;2.70;;
78561;SDS011;68963;52.138;5.446;2023-04-25T03:09:22;12.95;;;2.75;;
78561;SDS011;68963;52.138;5.446;2023-04-25T03:11:49;12.43;;;2.95;;
78561;SDS011;68963;52.138;5.446;2023-04-25T03:14:15;12.55;;;3.13;;
78561;SDS011;68963;52.138;5.446;2023-04-25T03:16:42;11.70;;;2.67;;
78561;SDS011;68963;52.138;5.446;2023-04-25T03:19:08;12.02;;;2.75;;
78561;SDS011;68963;52.138;5.446;2023-04-25T03:21:35;8.40;;;2.67;;
78561;SDS011;68963;52.138;5.446;2023-04-25T03:24:02;13.35;;;2.90;;
78561;SDS011;68963;52.138;5.446;2023-04-25T03:26:30;10.20;;;2.63;;
78561;SDS011;68963;52.138;5.446;2023-04-25T03:28:57;11.50;;;2.58;;
78561;SDS011;68963;52.138;5.446;2023-04-25T03:31:23;9.52;;;2.35;;
78561;SDS011;68963;52.138;5.446;2023-04-25T03:33:50;12.50;;;2.90;;
78561;SDS011;68963;52.138;5.446;2023-04-25T03:36:17;11.25;;;2.65;;
78561;SDS011;68963;52.138;5.446;2023-04-25T03:38:43;12.20;;;2.80;;
78561;SDS011;68963;52.138;5.446;2023-04-25T03:41:10;13.73;;;3.33;;
78561;SDS011;68963;52.138;5.446;2023-04-25T03:43:36;12.52;;;2.67;;
78561;SDS011;68963;52.138;5.446;2023-04-25T03:46:03;12.98;;;2.47;;
78561;SDS011;68963;52.138;5.446;2023-04-25T03:48:29;10.40;;;2.45;;
78561;SDS011;68963;52.138;5.446;2023-04-25T03:50:56;14.00;;;2.90;;
78561;SDS011;68963;52.138;5.446;2023-04-25T03:53:22;7.72;;;2.60;;
78561;SDS011;68963;52.138;5.446;2023-04-25T03:55:49;10.68;;;2.40;;
78561;SDS011;68963;52.138;5.446;2023-04-25T03:58:15;12.25;;;2.30;;
78561;SDS011;68963;52.138;5.446;2023-04-25T04:00:42;13.02;;;2.33;;
78561;SDS011;68963;52.138;5.446;2023-04-25T04:03:08;9.30;;;2.50;;
78561;SDS011;68963;52.138;5.446;2023-04-25T04:05:35;13.48;;;2.50;;
78561;SDS011;68963;52.138;5.446;2023-04-25T04:08:03;9.27;;;2.42;;
78561;SDS011;68963;52.138;5.446;2023-04-25T04:10:30;9.55;;;2.30;;
78561;SDS011;68963;52.138;5.446;2023-04-25T04:12:56;14.38;;;2.50;;
78561;SDS011;68963;52.138;5.446;2023-04-25T04:15:23;7.47;;;2.00;;
78561;SDS011;68963;52.138;5.446;2023-04-25T04:17:49;8.57;;;2.10;;
78561;SDS011;68963;52.138;5.446;2023-04-25T04:20:16;10.93;;;2.30;;
78561;SDS011;68963;52.138;5.446;2023-04-25T04:22:42;18.20;;;2.38;;
78561;SDS011;68963;52.138;5.446;2023-04-25T04:25:09;8.50;;;1.95;;
78561;SDS011;68963;52.138;5.446;2023-04-25T04:27:37;13.07;;;2.80;;
78561;SDS011;68963;52.138;5.446;2023-04-25T04:30:04;10.60;;;2.10;;
78561;SDS011;68963;52.138;5.446;2023-04-25T04:32:32;8.10;;;2.10;;
78561;SDS011;68963;52.138;5.446;2023-04-25T04:35:00;6.72;;;1.60;;
78561;SDS011;68963;52.138;5.446;2023-04-25T04:37:27;13.45;;;1.85;;
78561;SDS011;68963;52.138;5.446;2023-04-25T04:39:53;8.10;;;1.67;;
78561;SDS011;68963;52.138;5.446;2023-04-25T04:42:20;7.95;;;1.50;;
78561;SDS011;68963;52.138;5.446;2023-04-25T04:44:47;6.00;;;1.35;;
78561;SDS011;68963;52.138;5.446;2023-04-25T04:47:14;7.38;;;1.40;;
78561;SDS011;68963;52.138;5.446;2023-04-25T04:49:40;4.57;;;1.20;;
78561;SDS011;68963;52.138;5.446;2023-04-25T04:52:07;6.13;;;1.60;;
78561;SDS011;68963;52.138;5.446;2023-04-25T04:54:34;8.40;;;1.45;;
78561;SDS011;68963;52.138;5.446;2023-04-25T04:57:01;7.47;;;1.30;;
78561;SDS011;68963;52.138;5.446;2023-04-25T04:59:28;7.70;;;1.50;;
78561;SDS011;68963;52.138;5.446;2023-04-25T05:01:54;7.93;;;1.63;;
78561;SDS011;68963;52.138;5.446;2023-04-25T05:04:21;7.53;;;1.23;;
78561;SDS011;68963;52.138;5.446;2023-04-25T05:06:48;7.97;;;1.50;;
78561;SDS011;68963;52.138;5.446;2023-04-25T05:09:14;7.65;;;1.40;;
78561;SDS011;68963;52.138;5.446;2023-04-25T05:11:41;9.43;;;1.50;;
78561;SDS011;68963;52.138;5.446;2023-04-25T05:14:07;5.15;;;1.50;;
78561;SDS011;68963;52.138;5.446;2023-04-25T05:16:34;7.53;;;1.70;;
78561;SDS011;68963;52.138;5.446;2023-04-25T05:19:01;9.85;;;1.35;;
78561;SDS011;68963;52.138;5.446;2023-04-25T05:21:28;8.45;;;1.90;;
78561;SDS011;68963;52.138;5.446;2023-04-25T05:23:54;5.63;;;1.40;;
78561;SDS011;68963;52.138;5.446;2023-04-25T05:26:21;5.95;;;1.60;;
78561;SDS011;68963;52.138;5.446;2023-04-25T05:28:48;6.10;;;1.45;;
78561;SDS011;68963;52.138;5.446;2023-04-25T05:33:43;7.63;;;1.55;;
78561;SDS011;68963;52.138;5.446;2023-04-25T05:36:10;8.23;;;1.65;;
78561;SDS011;68963;52.138;5.446;2023-04-25T05:38:36;7.93;;;1.63;;
78561;SDS011;68963;52.138;5.446;2023-04-25T05:41:03;7.55;;;1.55;;
78561;SDS011;68963;52.138;5.446;2023-04-25T05:43:29;5.88;;;1.50;;
78561;SDS011;68963;52.138;5.446;2023-04-25T05:45:56;9.57;;;1.80;;
78561;SDS011;68963;52.138;5.446;2023-04-25T05:48:23;8.80;;;2.13;;
78561;SDS011;68963;52.138;5.446;2023-04-25T05:50:49;8.07;;;1.80;;
78561;SDS011;68963;52.138;5.446;2023-04-25T05:53:18;7.53;;;1.65;;
78561;SDS011;68963;52.138;5.446;2023-04-25T05:55:45;8.95;;;2.17;;
78561;SDS011;68963;52.138;5.446;2023-04-25T05:58:12;11.68;;;1.95;;
78561;SDS011;68963;52.138;5.446;2023-04-25T06:00:39;8.13;;;1.83;;
78561;SDS011;68963;52.138;5.446;2023-04-25T06:03:07;7.15;;;1.67;;
78561;SDS011;68963;52.138;5.446;2023-04-25T06:08:02;9.48;;;1.83;;
78561;SDS011;68963;52.138;5.446;2023-04-25T06:10:29;9.63;;;1.60;;
78561;SDS011;68963;52.138;5.446;2023-04-25T06:12:56;6.80;;;1.60;;
78561;SDS011;68963;52.138;5.446;2023-04-25T06:15:22;7.63;;;1.60;;
78561;SDS011;68963;52.138;5.446;2023-04-25T06:17:54;9.00;;;1.60;;
78561;SDS011;68963;52.138;5.446;2023-04-25T06:20:21;9.25;;;1.65;;
78561;SDS011;68963;52.138;5.446;2023-04-25T06:22:50;9.93;;;1.60;;
78561;SDS011;68963;52.138;5.446;2023-04-25T06:25:18;7.03;;;1.35;;
78561;SDS011;68963;52.138;5.446;2023-04-25T06:27:44;9.07;;;1.65;;
78561;SDS011;68963;52.138;5.446;2023-04-25T06:30:11;10.13;;;1.75;;
78561;SDS011;68963;52.138;5.446;2023-04-25T06:32:41;7.28;;;1.50;;
78561;SDS011;68963;52.138;5.446;2023-04-25T06:35:08;8.38;;;1.90;;
78561;SDS011;68963;52.138;5.446;2023-04-25T06:37:34;7.82;;;1.83;;
78561;SDS011;68963;52.138;5.446;2023-04-25T06:40:01;6.97;;;1.50;;
78561;SDS011;68963;52.138;5.446;2023-04-25T06:42:28;6.43;;;1.45;;
78561;SDS011;68963;52.138;5.446;2023-04-25T06:44:55;7.38;;;1.50;;
78561;SDS011;68963;52.138;5.446;2023-04-25T06:47:22;9.88;;;1.52;;
78561;SDS011;68963;52.138;5.446;2023-04-25T06:49:48;5.80;;;1.33;;
78561;SDS011;68963;52.138;5.446;2023-04-25T06:52:15;9.40;;;1.40;;
78561;SDS011;68963;52.138;5.446;2023-04-25T06:57:11;8.10;;;1.60;;
78561;SDS011;68963;52.138;5.446;2023-04-25T06:59:37;7.85;;;1.52;;
78561;SDS011;68963;52.138;5.446;2023-04-25T07:02:04;9.65;;;1.50;;
78561;SDS011;68963;52.138;5.446;2023-04-25T07:04:30;7.13;;;1.50;;
78561;SDS011;68963;52.138;5.446;2023-04-25T07:06:57;5.68;;;1.30;;
78561;SDS011;68963;52.138;5.446;2023-04-25T07:09:24;10.40;;;1.65;;
78561;SDS011;68963;52.138;5.446;2023-04-25T07:11:51;10.45;;;1.33;;
78561;SDS011;68963;52.138;5.446;2023-04-25T07:14:17;7.32;;;1.50;;
78561;SDS011;68963;52.138;5.446;2023-04-25T07:16:43;6.63;;;1.65;;
78561;SDS011;68963;52.138;5.446;2023-04-25T07:19:10;10.20;;;1.52;;
78561;SDS011;68963;52.138;5.446;2023-04-25T07:21:37;5.43;;;1.20;;
78561;SDS011;68963;52.138;5.446;2023-04-25T07:24:03;8.93;;;1.40;;
78561;SDS011;68963;52.138;5.446;2023-04-25T07:26:30;8.27;;;1.48;;
78561;SDS011;68963;52.138;5.446;2023-04-25T07:28:57;8.15;;;1.40;;
78561;SDS011;68963;52.138;5.446;2023-04-25T07:31:23;7.60;;;1.15;;
78561;SDS011;68963;52.138;5.446;2023-04-25T07:33:50;7.18;;;1.30;;
78561;SDS011;68963;52.138;5.446;2023-04-25T07:36:17;6.07;;;1.38;;
78561;SDS011;68963;52.138;5.446;2023-04-25T07:38:43;7.90;;;1.02;;
78561;SDS011;68963;52.138;5.446;2023-04-25T07:41:10;8.75;;;1.35;;
78561;SDS011;68963;52.138;5.446;2023-04-25T07:43:37;8.20;;;1.45;;
78561;SDS011;68963;52.138;5.446;2023-04-25T07:46:03;9.93;;;1.30;;
78561;SDS011;68963;52.138;5.446;2023-04-25T07:48:30;5.28;;;1.05;;
78561;SDS011;68963;52.138;5.446;2023-04-25T07:50:56;6.40;;;1.30;;
78561;SDS011;68963;52.138;5.446;2023-04-25T07:53:23;10.10;;;1.40;;
78561;SDS011;68963;52.138;5.446;2023-04-25T07:55:50;7.50;;;1.30;;
78561;SDS011;68963;52.138;5.446;2023-04-25T07:58:16;6.28;;;1.17;;
78561;SDS011;68963;52.138;5.446;2023-04-25T08:00:47;6.75;;;0.90;;
78561;SDS011;68963;52.138;5.446;2023-04-25T08:03:14;5.93;;;1.17;;
78561;SDS011;68963;52.138;5.446;2023-04-25T08:05:41;6.32;;;1.35;;
78561;SDS011;68963;52.138;5.446;2023-04-25T08:08:08;8.48;;;1.15;;
78561;SDS011;68963;52.138;5.446;2023-04-25T08:10:34;5.93;;;1.08;;
78561;SDS011;68963;52.138;5.446;2023-04-25T08:13:01;7.30;;;1.30;;
78561;SDS011;68963;52.138;5.446;2023-04-25T08:15:28;7.15;;;1.30;;
78561;SDS011;68963;52.138;5.446;2023-04-25T08:17:55;4.80;;;0.90;;
78561;SDS011;68963;52.138;5.446;2023-04-25T08:20:21;9.63;;;1.10;;
78561;SDS011;68963;52.138;5.446;2023-04-25T08:22:48;4.82;;;0.80;;
78561;SDS011;68963;52.138;5.446;2023-04-25T08:25:14;7.05;;;1.02;;
78561;SDS011;68963;52.138;5.446;2023-04-25T08:27:41;5.57;;;1.00;;
78561;SDS011;68963;52.138;5.446;2023-04-25T08:30:08;5.45;;;1.00;;
78561;SDS011;68963;52.138;5.446;2023-04-25T08:32:35;6.55;;;1.13;;
78561;SDS011;68963;52.138;5.446;2023-04-25T08:35:04;7.18;;;1.10;;
78561;SDS011;68963;52.138;5.446;2023-04-25T08:37:31;3.55;;;0.70;;
78561;SDS011;68963;52.138;5.446;2023-04-25T08:39:58;5.45;;;1.00;;
78561;SDS011;68963;52.138;5.446;2023-04-25T08:42:26;6.25;;;0.90;;
78561;SDS011;68963;52.138;5.446;2023-04-25T08:44:55;2.85;;;0.65;;
78561;SDS011;68963;52.138;5.446;2023-04-25T08:47:22;4.88;;;0.77;;
78561;SDS011;68963;52.138;5.446;2023-04-25T08:49:50;5.28;;;0.90;;
78561;SDS011;68963;52.138;5.446;2023-04-25T08:52:23;6.72;;;0.90;;
78561;SDS011;68963;52.138;5.446;2023-04-25T08:54:51;6.38;;;1.00;;
78561;SDS011;68963;52.138;5.446;2023-04-25T08:59:47;4.72;;;0.98;;
78561;SDS011;68963;52.138;5.446;2023-04-25T09:02:15;7.60;;;1.00;;
78561;SDS011;68963;52.138;5.446;2023-04-25T09:04:44;5.55;;;0.90;;
78561;SDS011;68963;52.138;5.446;2023-04-25T09:07:13;8.32;;;1.25;;
78561;SDS011;68963;52.138;5.446;2023-04-25T09:09:44;5.35;;;0.93;;
78561;SDS011;68963;52.138;5.446;2023-04-25T09:12:11;4.88;;;0.93;;
78561;SDS011;68963;52.138;5.446;2023-04-25T09:14:38;7.88;;;1.00;;
78561;SDS011;68963;52.138;5.446;2023-04-25T09:17:04;7.55;;;1.10;;
78561;SDS011;68963;52.138;5.446;2023-04-25T09:19:34;6.95;;;1.38;;
78561;SDS011;68963;52.138;5.446;2023-04-25T09:22:08;4.97;;;0.90;;
78561;SDS011;68963;52.138;5.446;2023-04-25T09:27:09;4.40;;;0.70;;
78561;SDS011;68963;52.138;5.446;2023-04-25T09:29:38;5.35;;;0.80;;
78561;SDS011;68963;52.138;5.446;2023-04-25T09:34:53;4.97;;;0.80;;
78561;SDS011;68963;52.138;5.446;2023-04-25T09:37:28;5.22;;;0.80;;
78561;SDS011;68963;52.138;5.446;2023-04-25T09:39:56;6.65;;;0.90;;
78561;SDS011;68963;52.138;5.446;2023-04-25T09:42:31;5.47;;;0.75;;
78561;SDS011;68963;52.138;5.446;2023-04-25T09:45:00;4.30;;;0.80;;
78561;SDS011;68963;52.138;5.446;2023-04-25T09:47:28;5.05;;;0.98;;
78561;SDS011;68963;52.138;5.446;2023-04-25T09:49:55;5.60;;;1.20;;
78561;SDS011;68963;52.138;5.446;2023-04-25T09:52:22;4.50;;;1.38;;
78561;SDS011;68963;52.138;5.446;2023-04-25T09:54:51;6.85;;;0.95;;
78561;SDS011;68963;52.138;5.446;2023-04-25T09:57:19;4.75;;;0.90;;
78561;SDS011;68963;52.138;5.446;2023-04-25T09:59:48;4.57;;;0.73;;
78561;SDS011;68963;52.138;5.446;2023-04-25T10:02:17;4.90;;;0.80;;
78561;SDS011;68963;52.138;5.446;2023-04-25T10:04:50;5.32;;;0.93;;
78561;SDS011;68963;52.138;5.446;2023-04-25T10:07:25;4.68;;;0.75;;
78561;SDS011;68963;52.138;5.446;2023-04-25T10:09:54;3.65;;;0.70;;
78561;SDS011;68963;52.138;5.446;2023-04-25T10:12:30;4.68;;;0.70;;
78561;SDS011;68963;52.138;5.446;2023-04-25T10:14:59;5.40;;;0.95;;
78561;SDS011;68963;52.138;5.446;2023-04-25T10:17:26;4.70;;;0.80;;
78561;SDS011;68963;52.138;5.446;2023-04-25T10:19:56;5.97;;;0.93;;
78561;SDS011;68963;52.138;5.446;2023-04-25T10:22:26;5.82;;;0.75;;
78561;SDS011;68963;52.138;5.446;2023-04-25T10:24:57;8.35;;;1.27;;
78561;SDS011;68963;52.138;5.446;2023-04-25T10:27:26;5.00;;;1.00;;
78561;SDS011;68963;52.138;5.446;2023-04-25T10:30:00;5.13;;;1.17;;
78561;SDS011;68963;52.138;5.446;2023-04-25T10:32:32;3.80;;;0.90;;
78561;SDS011;68963;52.138;5.446;2023-04-25T10:35:09;6.50;;;0.85;;
78561;SDS011;68963;52.138;5.446;2023-04-25T10:37:37;6.68;;;0.90;;
78561;SDS011;68963;52.138;5.446;2023-04-25T10:40:09;4.95;;;1.00;;
78561;SDS011;68963;52.138;5.446;2023-04-25T10:42:36;4.60;;;0.80;;
78561;SDS011;68963;52.138;5.446;2023-04-25T10:45:06;4.03;;;0.80;;
78561;SDS011;68963;52.138;5.446;2023-04-25T10:47:36;5.75;;;0.85;;
78561;SDS011;68963;52.138;5.446;2023-04-25T10:50:07;4.40;;;0.85;;
78561;SDS011;68963;52.138;5.446;2023-04-25T10:52:35;6.35;;;1.00;;
78561;SDS011;68963;52.138;5.446;2023-04-25T10:55:05;4.68;;;1.30;;
78561;SDS011;68963;52.138;5.446;2023-04-25T10:57:35;5.57;;;0.80;;
78561;SDS011;68963;52.138;5.446;2023-04-25T11:00:07;3.53;;;0.98;;
78561;SDS011;68963;52.138;5.446;2023-04-25T11:02:40;5.78;;;1.08;;
78561;SDS011;68963;52.138;5.446;2023-04-25T11:08:16;7.07;;;0.90;;
78561;SDS011;68963;52.138;5.446;2023-04-25T11:10:56;5.15;;;1.00;;
78561;SDS011;68963;52.138;5.446;2023-04-25T11:13:28;5.28;;;0.98;;
78561;SDS011;68963;52.138;5.446;2023-04-25T11:15:55;5.15;;;1.10;;
78561;SDS011;68963;52.138;5.446;2023-04-25T11:18:40;7.25;;;1.50;;
78561;SDS011;68963;52.138;5.446;2023-04-25T11:21:07;5.18;;;1.00;;
78561;SDS011;68963;52.138;5.446;2023-04-25T11:23:34;6.93;;;1.23;;
78561;SDS011;68963;52.138;5.446;2023-04-25T11:26:01;5.88;;;1.10;;
78561;SDS011;68963;52.138;5.446;2023-04-25T11:28:28;4.65;;;0.98;;
78561;SDS011;68963;52.138;5.446;2023-04-25T11:30:55;5.93;;;1.00;;
78561;SDS011;68963;52.138;5.446;2023-04-25T11:33:25;4.75;;;1.10;;
78561;SDS011;68963;52.138;5.446;2023-04-25T11:35:53;6.72;;;1.52;;
78561;SDS011;68963;52.138;5.446;2023-04-25T11:38:22;5.78;;;1.30;;
78561;SDS011;68963;52.138;5.446;2023-04-25T11:40:53;4.10;;;1.00;;
78561;SDS011;68963;52.138;5.446;2023-04-25T11:43:21;5.75;;;1.27;;
78561;SDS011;68963;52.138;5.446;2023-04-25T11:45:49;6.13;;;1.35;;
78561;SDS011;68963;52.138;5.446;2023-04-25T11:48:19;5.63;;;1.13;;
78561;SDS011;68963;52.138;5.446;2023-04-25T11:50:51;7.85;;;1.20;;
78561;SDS011;68963;52.138;5.446;2023-04-25T11:53:17;4.35;;;0.98;;
78561;SDS011;68963;52.138;5.446;2023-04-25T11:55:44;6.78;;;1.42;;
78561;SDS011;68963;52.138;5.446;2023-04-25T11:58:11;4.88;;;0.95;;
78561;SDS011;68963;52.138;5.446;2023-04-25T12:03:29;7.13;;;1.30;;
78561;SDS011;68963;52.138;5.446;2023-04-25T12:06:02;6.25;;;0.93;;
78561;SDS011;68963;52.138;5.446;2023-04-25T12:08:30;5.50;;;1.10;;
78561;SDS011;68963;52.138;5.446;2023-04-25T12:10:57;5.53;;;1.10;;
78561;SDS011;68963;52.138;5.446;2023-04-25T12:13:24;3.05;;;0.98;;
78561;SDS011;68963;52.138;5.446;2023-04-25T12:15:54;7.50;;;1.10;;
78561;SDS011;68963;52.138;5.446;2023-04-25T12:18:22;4.90;;;1.00;;
78561;SDS011;68963;52.138;5.446;2023-04-25T12:20:50;6.90;;;1.13;;
78561;SDS011;68963;52.138;5.446;2023-04-25T12:23:24;6.57;;;0.90;;
78561;SDS011;68963;52.138;5.446;2023-04-25T12:25:52;5.38;;;1.10;;
78561;SDS011;68963;52.138;5.446;2023-04-25T12:28:20;4.95;;;0.93;;
78561;SDS011;68963;52.138;5.446;2023-04-25T12:33:36;3.30;;;0.90;;
78561;SDS011;68963;52.138;5.446;2023-04-25T12:36:03;6.93;;;1.20;;
78561;SDS011;68963;52.138;5.446;2023-04-25T12:38:36;5.93;;;0.95;;
78561;SDS011;68963;52.138;5.446;2023-04-25T12:41:04;4.90;;;0.90;;
78561;SDS011;68963;52.138;5.446;2023-04-25T12:43:31;4.55;;;1.00;;
78561;SDS011;68963;52.138;5.446;2023-04-25T12:45:58;5.22;;;0.98;;
78561;SDS011;68963;52.138;5.446;2023-04-25T12:48:24;7.07;;;1.05;;
78561;SDS011;68963;52.138;5.446;2023-04-25T12:50:51;4.47;;;0.95;;
78561;SDS011;68963;52.138;5.446;2023-04-25T12:53:22;5.53;;;0.90;;
78561;SDS011;68963;52.138;5.446;2023-04-25T12:55:49;3.67;;;0.90;;
78561;SDS011;68963;52.138;5.446;2023-04-25T12:58:17;4.70;;;0.90;;
78561;SDS011;68963;52.138;5.446;2023-04-25T13:00:45;5.38;;;0.90;;
78561;SDS011;68963;52.138;5.446;2023-04-25T13:03:12;4.40;;;0.80;;
78561;SDS011;68963;52.138;5.446;2023-04-25T13:05:39;4.82;;;0.90;;
78561;SDS011;68963;52.138;5.446;2023-04-25T13:08:06;5.43;;;0.90;;
78561;SDS011;68963;52.138;5.446;2023-04-25T13:10:33;8.77;;;1.20;;
78561;SDS011;68963;52.138;5.446;2023-04-25T13:13:03;5.30;;;0.98;;
78561;SDS011;68963;52.138;5.446;2023-04-25T13:15:29;4.22;;;0.98;;
78561;SDS011;68963;52.138;5.446;2023-04-25T13:17:56;4.85;;;0.90;;
78561;SDS011;68963;52.138;5.446;2023-04-25T13:20:23;6.47;;;0.90;;
78561;SDS011;68963;52.138;5.446;2023-04-25T13:22:50;6.43;;;1.02;;
78561;SDS011;68963;52.138;5.446;2023-04-25T13:25:16;5.18;;;1.00;;
78561;SDS011;68963;52.138;5.446;2023-04-25T13:27:43;4.95;;;1.00;;
78561;SDS011;68963;52.138;5.446;2023-04-25T13:30:11;7.65;;;1.10;;
78561;SDS011;68963;52.138;5.446;2023-04-25T13:32:38;5.53;;;0.90;;
78561;SDS011;68963;52.138;5.446;2023-04-25T13:35:05;5.80;;;1.00;;
78561;SDS011;68963;52.138;5.446;2023-04-25T13:37:36;5.78;;;1.10;;
78561;SDS011;68963;52.138;5.446;2023-04-25T13:40:04;5.00;;;1.10;;
78561;SDS011;68963;52.138;5.446;2023-04-25T13:42:35;4.32;;;0.95;;
78561;SDS011;68963;52.138;5.446;2023-04-25T13:45:02;5.28;;;1.40;;
78561;SDS011;68963;52.138;5.446;2023-04-25T13:47:29;4.60;;;1.02;;
78561;SDS011;68963;52.138;5.446;2023-04-25T13:49:56;4.97;;;1.08;;
78561;SDS011;68963;52.138;5.446;2023-04-25T13:52:23;7.15;;;1.25;;
78561;SDS011;68963;52.138;5.446;2023-04-25T13:54:53;3.83;;;0.98;;
78561;SDS011;68963;52.138;5.446;2023-04-25T13:57:20;4.75;;;1.30;;
78561;SDS011;68963;52.138;5.446;2023-04-25T13:59:46;5.20;;;1.13;;
78561;SDS011;68963;52.138;5.446;2023-04-25T14:02:13;5.25;;;1.15;;
78561;SDS011;68963;52.138;5.446;2023-04-25T14:04:40;6.72;;;1.30;;
78561;SDS011;68963;52.138;5.446;2023-04-25T14:07:07;6.25;;;1.02;;
78561;SDS011;68963;52.138;5.446;2023-04-25T14:09:34;5.25;;;1.40;;
78561;SDS011;68963;52.138;5.446;2023-04-25T14:12:01;5.18;;;1.15;;
78561;SDS011;68963;52.138;5.446;2023-04-25T14:14:28;6.18;;;1.25;;
78561;SDS011;68963;52.138;5.446;2023-04-25T14:16:54;6.13;;;1.20;;
78561;SDS011;68963;52.138;5.446;2023-04-25T14:21:50;3.70;;;1.00;;
78561;SDS011;68963;52.138;5.446;2023-04-25T14:24:16;6.20;;;1.20;;
78561;SDS011;68963;52.138;5.446;2023-04-25T14:26:43;5.47;;;1.15;;
78561;SDS011;68963;52.138;5.446;2023-04-25T14:29:10;6.43;;;1.20;;
78561;SDS011;68963;52.138;5.446;2023-04-25T14:34:05;4.13;;;1.10;;
78561;SDS011;68963;52.138;5.446;2023-04-25T14:36:33;4.75;;;1.33;;
78561;SDS011;68963;52.138;5.446;2023-04-25T14:39:00;4.05;;;1.00;;
78561;SDS011;68963;52.138;5.446;2023-04-25T14:41:27;6.68;;;1.30;;
78561;SDS011;68963;52.138;5.446;2023-04-25T14:43:53;4.30;;;1.00;;
78561;SDS011;68963;52.138;5.446;2023-04-25T14:46:20;5.22;;;1.00;;
78561;SDS011;68963;52.138;5.446;2023-04-25T14:48:48;5.78;;;1.00;;
78561;SDS011;68963;52.138;5.446;2023-04-25T14:51:15;5.80;;;1.23;;
78561;SDS011;68963;52.138;5.446;2023-04-25T14:53:42;4.65;;;1.10;;
78561;SDS011;68963;52.138;5.446;2023-04-25T14:56:08;4.82;;;1.08;;
78561;SDS011;68963;52.138;5.446;2023-04-25T14:58:35;4.40;;;1.00;;
78561;SDS011;68963;52.138;5.446;2023-04-25T15:01:01;6.00;;;1.10;;
78561;SDS011;68963;52.138;5.446;2023-04-25T15:03:28;4.13;;;1.08;;
78561;SDS011;68963;52.138;5.446;2023-04-25T15:05:55;4.32;;;1.27;;
78561;SDS011;68963;52.138;5.446;2023-04-25T15:08:22;4.25;;;1.65;;
78561;SDS011;68963;52.138;5.446;2023-04-25T15:10:48;4.93;;;1.17;;
78561;SDS011;68963;52.138;5.446;2023-04-25T15:13:15;4.65;;;1.20;;